sensor_id;sensor_type;location;lat;lon;timestamp;pressure;altitude;pressure_sealevel;temperature;humidity
34979;BME280;21185;50.978;13.720;2024-02-16T00:11:50;98297.91;;;9.23;79.08
34979;BME280;21185;50.978;13.720;2024-02-16T00:23:00;98293.84;;;9.21;79.16
34979;BME280;21185;50.978;13.720;2024-02-16T00:28:02;98285.94;;;9.22;79.15
34979;BME280;21185;50.978;13.720;2024-02-16T00:33:06;98279.44;;;9.18;78.98
34979;BME280;21185;50.978;13.720;2024-02-16T00:38:11;98277.97;;;9.16;78.99
34979;BME280;21185;50.978;13.720;2024-02-16T00:50:15;98263.03;;;9.09;78.95
34979;BME280;21185;50.978;13.720;2024-02-16T00:55:18;98259.63;;;9.09;79.24
34979;BME280;21185;50.978;13.720;2024-02-16T01:06:19;98247.16;;;9.04;79.26
34979;BME280;21185;50.978;13.720;2024-02-16T01:11:23;98258.47;;;9.03;79.26
34979;BME280;21185;50.978;13.720;2024-02-16T01:16:28;98246.78;;;8.99;79.28
34979;BME280;21185;50.978;13.720;2024-02-16T01:21:30;98241.78;;;8.98;79.51
34979;BME280;21185;50.978;13.720;2024-02-16T01:34:07;98241.25;;;8.94;79.46
34979;BME280;21185;50.978;13.720;2024-02-16T01:39:12;98242.22;;;8.93;79.59
34979;BME280;21185;50.978;13.720;2024-02-16T01:44:42;98240.47;;;8.94;79.69
34979;BME280;21185;50.978;13.720;2024-02-16T01:49:44;98242.88;;;8.95;79.79
34979;BME280;21185;50.978;13.720;2024-02-16T01:54:51;98238.22;;;8.99;79.69
34979;BME280;21185;50.978;13.720;2024-02-16T02:00:03;98231.94;;;9.01;79.91
34979;BME280;21185;50.978;13.720;2024-02-16T02:05:10;98233.25;;;9.05;80.05
34979;BME280;21185;50.978;13.720;2024-02-16T02:10:14;98232.44;;;9.05;79.83
34979;BME280;21185;50.978;13.720;2024-02-16T02:15:17;98222.22;;;9.03;79.86
34979;BME280;21185;50.978;13.720;2024-02-16T02:20:21;98219.00;;;9.01;79.80
34979;BME280;21185;50.978;13.720;2024-02-16T02:25:23;98209.91;;;8.97;80.24
34979;BME280;21185;50.978;13.720;2024-02-16T02:30:28;98216.06;;;8.96;79.98
34979;BME280;21185;50.978;13.720;2024-02-16T02:35:30;98223.31;;;8.93;79.88
34979;BME280;21185;50.978;13.720;2024-02-16T02:40:35;98215.69;;;8.91;79.90
34979;BME280;21185;50.978;13.720;2024-02-16T02:45:41;98215.03;;;8.89;79.85
34979;BME280;21185;50.978;13.720;2024-02-16T02:50:43;98205.66;;;8.88;80.01
34979;BME280;21185;50.978;13.720;2024-02-16T02:55:50;98205.00;;;8.86;79.82
34979;BME280;21185;50.978;13.720;2024-02-16T03:00:53;98200.16;;;8.91;80.08
34979;BME280;21185;50.978;13.720;2024-02-16T03:05:56;98208.78;;;9.00;80.51
34979;BME280;21185;50.978;13.720;2024-02-16T03:11:02;98219.03;;;9.09;80.59
34979;BME280;21185;50.978;13.720;2024-02-16T03:16:06;98208.88;;;9.16;80.75
34979;BME280;21185;50.978;13.720;2024-02-16T03:21:08;98218.09;;;9.19;80.79
34979;BME280;21185;50.978;13.720;2024-02-16T03:26:20;98201.44;;;9.21;81.44
34979;BME280;21185;50.978;13.720;2024-02-16T03:31:23;98209.72;;;9.25;81.64
34979;BME280;21185;50.978;13.720;2024-02-16T03:36:25;98210.22;;;9.28;81.87
34979;BME280;21185;50.978;13.720;2024-02-16T03:41:27;98214.28;;;9.31;82.07
34979;BME280;21185;50.978;13.720;2024-02-16T03:46:29;98207.47;;;9.30;82.45
34979;BME280;21185;50.978;13.720;2024-02-16T03:51:31;98208.59;;;9.27;82.61
34979;BME280;21185;50.978;13.720;2024-02-16T03:56:34;98214.75;;;9.26;82.89
34979;BME280;21185;50.978;13.720;2024-02-16T04:01:37;98218.28;;;9.25;83.14
34979;BME280;21185;50.978;13.720;2024-02-16T04:06:39;98216.03;;;9.22;82.93
34979;BME280;21185;50.978;13.720;2024-02-16T04:11:42;98219.06;;;9.18;83.25
34979;BME280;21185;50.978;13.720;2024-02-16T04:16:44;98210.00;;;9.14;83.37
34979;BME280;21185;50.978;13.720;2024-02-16T04:21:49;98219.69;;;9.12;83.44
34979;BME280;21185;50.978;13.720;2024-02-16T04:26:51;98216.44;;;9.09;83.55
34979;BME280;21185;50.978;13.720;2024-02-16T04:31:55;98216.09;;;9.04;83.50
34979;BME280;21185;50.978;13.720;2024-02-16T04:36:57;98213.16;;;8.99;83.79
34979;BME280;21185;50.978;13.720;2024-02-16T04:42:00;98210.72;;;8.98;83.78
34979;BME280;21185;50.978;13.720;2024-02-16T04:47:03;98217.81;;;8.96;83.92
34979;BME280;21185;50.978;13.720;2024-02-16T04:52:05;98207.63;;;8.94;83.83
34979;BME280;21185;50.978;13.720;2024-02-16T04:57:10;98203.41;;;8.93;83.76
34979;BME280;21185;50.978;13.720;2024-02-16T05:02:12;98216.34;;;8.93;84.04
34979;BME280;21185;50.978;13.720;2024-02-16T05:07:15;98220.56;;;8.94;83.71
34979;BME280;21185;50.978;13.720;2024-02-16T05:12:18;98211.34;;;8.92;83.52
34979;BME280;21185;50.978;13.720;2024-02-16T05:17:23;98214.88;;;8.91;83.79
34979;BME280;21185;50.978;13.720;2024-02-16T05:22:26;98220.88;;;8.91;83.56
34979;BME280;21185;50.978;13.720;2024-02-16T05:27:28;98211.19;;;8.93;83.65
34979;BME280;21185;50.978;13.720;2024-02-16T05:32:31;98210.53;;;8.91;83.51
34979;BME280;21185;50.978;13.720;2024-02-16T05:37:33;98217.31;;;8.92;83.86
34979;BME280;21185;50.978;13.720;2024-02-16T05:42:36;98226.56;;;8.95;83.78
34979;BME280;21185;50.978;13.720;2024-02-16T05:47:39;98202.44;;;8.94;83.54
34979;BME280;21185;50.978;13.720;2024-02-16T05:52:42;98203.06;;;8.88;83.86
34979;BME280;21185;50.978;13.720;2024-02-16T05:57:46;98207.56;;;8.86;84.18
34979;BME280;21185;50.978;13.720;2024-02-16T06:02:48;98203.06;;;8.88;83.82
34979;BME280;21185;50.978;13.720;2024-02-16T06:07:50;98200.94;;;8.84;84.04
34979;BME280;21185;50.978;13.720;2024-02-16T06:18:17;98213.38;;;8.80;84.51
34979;BME280;21185;50.978;13.720;2024-02-16T06:23:19;98212.56;;;8.80;84.47
34979;BME280;21185;50.978;13.720;2024-02-16T06:28:22;98198.28;;;8.75;84.79
34979;BME280;21185;50.978;13.720;2024-02-16T06:34:11;98210.72;;;8.72;84.68
34979;BME280;21185;50.978;13.720;2024-02-16T06:39:15;98222.03;;;8.71;84.76
34979;BME280;21185;50.978;13.720;2024-02-16T06:44:20;98228.16;;;8.70;84.83
34979;BME280;21185;50.978;13.720;2024-02-16T06:49:25;98235.94;;;8.70;84.74
34979;BME280;21185;50.978;13.720;2024-02-16T06:54:55;98237.09;;;8.75;84.67
34979;BME280;21185;50.978;13.720;2024-02-16T06:59:58;98223.34;;;8.75;84.45
34979;BME280;21185;50.978;13.720;2024-02-16T07:05:01;98221.22;;;8.70;84.64
34979;BME280;21185;50.978;13.720;2024-02-16T07:10:04;98216.84;;;8.71;84.96
34979;BME280;21185;50.978;13.720;2024-02-16T07:15:59;98212.03;;;8.76;85.28
34979;BME280;21185;50.978;13.720;2024-02-16T07:21:02;98228.59;;;8.83;84.95
34979;BME280;21185;50.978;13.720;2024-02-16T07:26:05;98234.78;;;8.90;85.06
34979;BME280;21185;50.978;13.720;2024-02-16T07:31:10;98220.56;;;8.94;84.83
34979;BME280;21185;50.978;13.720;2024-02-16T07:43:42;98220.22;;;9.23;84.97
34979;BME280;21185;50.978;13.720;2024-02-16T07:48:45;98214.31;;;9.39;84.93
34979;BME280;21185;50.978;13.720;2024-02-16T07:53:47;98205.31;;;9.59;84.90
34979;BME280;21185;50.978;13.720;2024-02-16T07:58:53;98212.34;;;9.83;85.04
34979;BME280;21185;50.978;13.720;2024-02-16T08:04:38;98202.50;;;10.03;85.09
34979;BME280;21185;50.978;13.720;2024-02-16T08:09:44;98210.94;;;10.05;84.82
34979;BME280;21185;50.978;13.720;2024-02-16T08:14:50;98223.72;;;10.06;84.57
34979;BME280;21185;50.978;13.720;2024-02-16T08:19:53;98238.16;;;10.09;84.42
34979;BME280;21185;50.978;13.720;2024-02-16T08:24:56;98227.50;;;10.20;84.43
34979;BME280;21185;50.978;13.720;2024-02-16T08:30:25;98214.38;;;10.30;84.41
34979;BME280;21185;50.978;13.720;2024-02-16T08:35:29;98215.84;;;10.32;84.42
34979;BME280;21185;50.978;13.720;2024-02-16T08:40:31;98208.22;;;10.39;84.43
34979;BME280;21185;50.978;13.720;2024-02-16T08:45:34;98213.84;;;10.51;84.50
34979;BME280;21185;50.978;13.720;2024-02-16T08:50:36;98207.03;;;10.58;84.04
34979;BME280;21185;50.978;13.720;2024-02-16T08:55:39;98201.53;;;10.69;83.61
34979;BME280;21185;50.978;13.720;2024-02-16T09:13:29;98199.03;;;10.92;82.02
34979;BME280;21185;50.978;13.720;2024-02-16T09:32:14;98210.47;;;11.22;81.14
34979;BME280;21185;50.978;13.720;2024-02-16T09:44:23;98222.56;;;11.46;80.11
34979;BME280;21185;50.978;13.720;2024-02-16T09:49:25;98234.50;;;11.63;79.58
34979;BME280;21185;50.978;13.720;2024-02-16T09:54:42;98228.59;;;11.85;79.28
34979;BME280;21185;50.978;13.720;2024-02-16T10:12:48;98243.72;;;11.82;77.93
34979;BME280;21185;50.978;13.720;2024-02-16T10:18:02;98239.50;;;11.81;77.80
34979;BME280;21185;50.978;13.720;2024-02-16T10:41:38;98212.97;;;11.85;78.22
34979;BME280;21185;50.978;13.720;2024-02-16T10:57:57;98201.78;;;12.30;77.68
34979;BME280;21185;50.978;13.720;2024-02-16T11:56:30;98193.06;;;12.61;74.53
34979;BME280;21185;50.978;13.720;2024-02-16T12:37:39;98206.84;;;13.14;73.75
34979;BME280;21185;50.978;13.720;2024-02-16T12:48:57;98214.34;;;13.17;73.64
34979;BME280;21185;50.978;13.720;2024-02-16T13:16:36;98190.03;;;13.60;71.96
34979;BME280;21185;50.978;13.720;2024-02-16T15:03:16;98193.91;;;12.76;72.15
34979;BME280;21185;50.978;13.720;2024-02-16T15:13:58;98216.41;;;12.69;72.36
34979;BME280;21185;50.978;13.720;2024-02-16T16:24:47;98235.78;;;12.29;72.29
34979;BME280;21185;50.978;13.720;2024-02-16T16:29:51;98240.53;;;12.25;72.39
34979;BME280;21185;50.978;13.720;2024-02-16T16:56:06;98266.25;;;11.89;72.56
34979;BME280;21185;50.978;13.720;2024-02-16T17:47:40;98326.13;;;11.65;73.26
34979;BME280;21185;50.978;13.720;2024-02-16T18:00:19;98324.34;;;11.65;73.41
34979;BME280;21185;50.978;13.720;2024-02-16T18:05:29;98327.75;;;11.66;73.53
34979;BME280;21185;50.978;13.720;2024-02-16T18:11:17;98330.97;;;11.68;73.60
34979;BME280;21185;50.978;13.720;2024-02-16T18:16:20;98339.75;;;11.67;73.40
34979;BME280;21185;50.978;13.720;2024-02-16T18:28:14;98336.69;;;11.63;73.45
34979;BME280;21185;50.978;13.720;2024-02-16T18:33:55;98342.88;;;11.62;73.79
34979;BME280;21185;50.978;13.720;2024-02-16T18:38:57;98339.63;;;11.60;73.69
34979;BME280;21185;50.978;13.720;2024-02-16T18:44:33;98348.22;;;11.61;73.93
34979;BME280;21185;50.978;13.720;2024-02-16T18:56:33;98352.81;;;11.51;74.09
34979;BME280;21185;50.978;13.720;2024-02-16T19:01:40;98364.03;;;11.43;73.79
34979;BME280;21185;50.978;13.720;2024-02-16T19:14:42;98368.75;;;11.23;74.13
34979;BME280;21185;50.978;13.720;2024-02-16T20:03:02;98419.25;;;11.29;74.30
34979;BME280;21185;50.978;13.720;2024-02-16T21:06:23;98456.75;;;11.34;75.51
34979;BME280;21185;50.978;13.720;2024-02-16T21:11:26;98458.84;;;11.47;75.82
34979;BME280;21185;50.978;13.720;2024-02-16T21:37:15;98458.16;;;12.02;76.47
34979;BME280;21185;50.978;13.720;2024-02-16T21:42:19;98458.91;;;12.19;76.65
34979;BME280;21185;50.978;13.720;2024-02-16T21:54:23;98471.06;;;12.35;76.45
34979;BME280;21185;50.978;13.720;2024-02-16T22:13:49;98477.19;;;12.50;76.71
34979;BME280;21185;50.978;13.720;2024-02-16T23:53:38;98567.34;;;12.82;80.61
